createdAt,value
2022-09-23T00:01:20.592Z,99105.28
2022-09-23T00:03:49.146Z,99104.52
2022-09-23T00:06:19.771Z,99104.86
2022-09-23T00:08:49.751Z,99111.40
2022-09-23T00:11:21.156Z,99109.36
2022-09-23T00:13:51.239Z,99107.25
2022-09-23T00:16:22.713Z,99105.91
2022-09-23T00:18:50.662Z,99103.15
2022-09-23T00:21:18.872Z,99103.83
2022-09-23T00:23:46.168Z,99097.52
2022-09-23T00:26:16.903Z,99095.69
2022-09-23T00:28:44.160Z,99095.73
2022-09-23T00:31:14.845Z,99094.95
2022-09-23T00:33:42.569Z,99090.73
2022-09-23T00:36:15.154Z,99087.94
2022-09-23T00:38:43.297Z,99084.34
2022-09-23T00:41:10.450Z,99086.16
2022-09-23T00:43:45.997Z,99082.77
2022-09-23T00:46:18.202Z,99079.79
2022-09-23T00:48:46.140Z,99080.73
2022-09-23T00:51:18.608Z,99080.44
2022-09-23T00:53:48.732Z,99080.08
2022-09-23T00:56:16.720Z,99076.24
2022-09-23T00:58:46.614Z,99079.25
2022-09-23T01:01:14.650Z,99077.59
2022-09-23T01:03:46.740Z,99079.79
2022-09-23T01:06:14.830Z,99074.46
2022-09-23T01:08:45.953Z,99077.56
2022-09-23T01:11:47.746Z,99076.88
2022-09-23T01:14:32.385Z,99074.64
2022-09-23T01:17:07.577Z,99072.98
2022-09-23T01:20:02.493Z,99069.04
2022-09-23T01:22:47.290Z,99068.80
2022-09-23T01:25:32.536Z,99071.77
2022-09-23T01:28:33.714Z,99072.02
2022-09-23T01:31:07.044Z,99070.40
2022-09-23T01:33:56.990Z,99064.55
2022-09-23T01:36:40.260Z,99065.39
2022-09-23T01:39:17.093Z,99070.16
2022-09-23T01:42:05.648Z,99070.81
2022-09-23T01:44:43.253Z,99072.65
2022-09-23T01:47:14.485Z,99072.30
2022-09-23T01:50:30.278Z,99072.91
2022-09-23T01:53:04.901Z,99068.61
2022-09-23T01:55:36.763Z,99066.73
2022-09-23T01:58:25.416Z,99064.86
2022-09-23T02:01:06.387Z,99066.04
2022-09-23T02:03:45.828Z,99061.64
2022-09-23T02:06:19.978Z,99057.37
2022-09-23T02:09:16.069Z,99058.85
2022-09-23T02:11:49.059Z,99061.70
2022-09-23T02:14:23.266Z,99057.30
2022-09-23T02:16:56.245Z,99055.90
2022-09-23T02:19:43.889Z,99051.80
2022-09-23T02:22:29.881Z,99053.79
2022-09-23T02:24:57.955Z,99055.67
2022-09-23T02:28:15.263Z,99057.14
2022-09-23T02:31:05.161Z,99056.94
2022-09-23T02:33:55.350Z,99059.03
2022-09-23T02:36:35.098Z,99052.27
2022-09-23T02:39:08.966Z,99051.85
2022-09-23T02:41:52.130Z,99050.63
2022-09-23T02:44:20.610Z,99050.52
2022-09-23T02:46:52.471Z,99051.34
2022-09-23T02:49:29.759Z,99050.03
2022-09-23T02:52:00.598Z,99054.38
2022-09-23T02:54:29.478Z,99052.33
2022-09-23T02:56:57.648Z,99055.66
2022-09-23T02:59:24.915Z,99056.64
2022-09-23T03:02:20.756Z,99054.41
2022-09-23T03:05:14.051Z,99050.88
2022-09-23T03:07:59.374Z,99048.91
2022-09-23T03:10:36.066Z,99050.58
2022-09-23T03:13:18.664Z,99051.26
2022-09-23T03:15:57.386Z,99052.34
2022-09-23T03:18:35.282Z,99053.70
2022-09-23T03:21:08.070Z,99049.89
2022-09-23T03:23:38.182Z,99050.95
2022-09-23T03:26:10.759Z,99051.16
2022-09-23T03:28:39.742Z,99054.48
2022-09-23T03:31:06.992Z,99055.98
2022-09-23T03:33:34.763Z,99058.63
2022-09-23T03:36:25.252Z,99059.72
2022-09-23T03:38:59.472Z,99063.86
2022-09-23T03:41:32.909Z,99059.13
2022-09-23T03:44:00.316Z,99060.55
2022-09-23T03:46:30.290Z,99059.55
2022-09-23T03:49:06.589Z,99062.20
2022-09-23T03:51:33.576Z,99059.30
2022-09-23T03:54:00.986Z,99059.71
2022-09-23T03:56:28.169Z,99058.88
2022-09-23T03:58:55.318Z,99057.33
2022-09-23T04:01:22.457Z,99051.86
2022-09-23T04:03:49.619Z,99053.99
2022-09-23T04:06:17.074Z,99052.49
2022-09-23T04:08:44.092Z,99057.45
2022-09-23T04:11:11.476Z,99057.16
2022-09-23T04:13:38.531Z,99060.66
2022-09-23T04:16:05.748Z,99060.71
2022-09-23T04:18:32.827Z,99062.55
2022-09-23T04:21:00.179Z,99058.81
2022-09-23T04:23:27.843Z,99058.36
2022-09-23T04:25:55.608Z,99062.52
2022-09-23T04:28:23.267Z,99064.16
2022-09-23T04:30:50.624Z,99065.27
2022-09-23T04:33:18.186Z,99066.56
2022-09-23T04:35:49.740Z,99063.86
2022-09-23T04:38:16.782Z,99066.40
2022-09-23T04:40:44.222Z,99061.39
2022-09-23T04:43:13.534Z,99065.16
2022-09-23T04:45:40.801Z,99064.59
2022-09-23T04:48:09.785Z,99066.02
2022-09-23T04:50:37.859Z,99062.73
2022-09-23T04:53:05.250Z,99066.78
2022-09-23T04:55:32.492Z,99071.94
2022-09-23T04:57:59.612Z,99071.77
2022-09-23T05:00:27.276Z,99074.80
2022-09-23T05:02:54.322Z,99072.26
2022-09-23T05:05:23.832Z,99071.37
2022-09-23T05:07:51.797Z,99072.02
2022-09-23T05:10:18.946Z,99071.84
2022-09-23T05:12:45.945Z,99073.85
2022-09-23T05:15:16.270Z,99070.95
2022-09-23T05:17:43.485Z,99069.66
2022-09-23T05:20:11.640Z,99069.27
2022-09-23T05:22:38.614Z,99069.48
2022-09-23T05:25:05.999Z,99070.13
2022-09-23T05:27:33.091Z,99069.47
2022-09-23T05:30:01.266Z,99069.57
2022-09-23T05:32:28.313Z,99068.63
2022-09-23T05:34:55.945Z,99068.11
2022-09-23T05:37:23.542Z,99068.14
2022-09-23T05:39:50.583Z,99068.87
2022-09-23T05:42:21.321Z,99065.80
2022-09-23T05:44:48.468Z,99069.15
2022-09-23T05:47:15.614Z,99065.83
2022-09-23T05:49:59.063Z,99065.21
2022-09-23T05:52:27.018Z,99068.98
2022-09-23T05:54:54.272Z,99066.88
2022-09-23T05:57:21.591Z,99066.25
2022-09-23T05:59:48.692Z,99065.77
2022-09-23T06:02:15.862Z,99063.96
2022-09-23T06:04:44.000Z,99064.45
2022-09-23T06:07:11.348Z,99070.88
2022-09-23T06:09:38.705Z,99069.81
2022-09-23T06:12:06.507Z,99072.27
2022-09-23T06:14:33.721Z,99073.88
2022-09-23T06:17:00.869Z,99074.20
2022-09-23T06:19:27.823Z,99076.73
2022-09-23T06:21:54.872Z,99078.80
2022-09-23T06:24:25.890Z,99076.05
2022-09-23T06:26:56.029Z,99080.69
2022-09-23T06:29:23.046Z,99081.73
2022-09-23T06:31:50.547Z,99082.98
2022-09-23T06:34:17.791Z,99084.98
2022-09-23T06:36:46.382Z,99085.58
2022-09-23T06:39:15.334Z,99086.59
2022-09-23T06:41:43.713Z,99090.64
2022-09-23T06:44:14.890Z,99087.42
2022-09-23T06:46:42.983Z,99086.30
2022-09-23T06:49:10.816Z,99083.61
2022-09-23T06:51:37.946Z,99083.70
2022-09-23T06:54:05.013Z,99081.33
2022-09-23T06:56:37.782Z,99078.63
2022-09-23T06:59:07.506Z,99080.60
2022-09-23T07:01:34.992Z,99082.07
2022-09-23T07:04:02.317Z,99081.95
2022-09-23T07:06:29.548Z,99083.81
2022-09-23T07:08:56.619Z,99082.90
2022-09-23T07:11:23.664Z,99081.45
2022-09-23T07:13:51.018Z,99086.02
2022-09-23T07:16:18.427Z,99081.98
2022-09-23T07:18:45.935Z,99080.65
2022-09-23T07:21:16.129Z,99080.20
2022-09-23T07:23:45.124Z,99075.73
2022-09-23T07:26:13.243Z,99072.82
2022-09-23T07:28:40.779Z,99074.36
2022-09-23T07:31:10.976Z,99073.36
2022-09-23T07:33:40.891Z,99068.14
2022-09-23T07:36:11.667Z,99068.80
2022-09-23T07:38:42.944Z,99063.52
2022-09-23T07:41:15.152Z,99065.11
2022-09-23T07:43:42.213Z,99060.41
2022-09-23T07:46:13.311Z,99063.92
2022-09-23T07:48:40.715Z,99062.40
2022-09-23T07:51:13.703Z,99063.16
2022-09-23T07:53:40.723Z,99061.96
2022-09-23T07:56:08.202Z,99061.39
2022-09-23T07:58:35.663Z,99063.51
2022-09-23T08:01:09.044Z,99065.59
2022-09-23T08:03:37.226Z,99063.25
2022-09-23T08:06:10.213Z,99063.66
2022-09-23T08:08:40.566Z,99062.36
2022-09-23T08:11:10.370Z,99061.94
2022-09-23T08:13:37.810Z,99062.63
2022-09-23T08:16:05.196Z,99060.89
2022-09-23T08:18:33.034Z,99062.19
2022-09-23T08:21:00.082Z,99059.50
2022-09-23T08:23:27.946Z,99061.25
2022-09-23T08:26:00.920Z,99065.05
2022-09-23T08:28:29.003Z,99063.03
2022-09-23T08:30:56.359Z,99063.19
2022-09-23T08:33:24.635Z,99060.94
2022-09-23T08:35:53.198Z,99055.62
2022-09-23T08:38:20.717Z,99060.15
2022-09-23T08:40:49.936Z,99060.46
2022-09-23T08:43:30.029Z,99053.43
2022-09-23T08:46:03.307Z,99055.98
2022-09-23T08:48:44.096Z,99057.98
2022-09-23T08:51:17.677Z,99056.22
2022-09-23T08:53:47.095Z,99059.67
2022-09-23T08:56:20.100Z,99057.81
2022-09-23T08:59:22.457Z,99056.52
2022-09-23T09:01:56.436Z,99057.45
2022-09-23T09:04:28.840Z,99050.31
2022-09-23T09:07:37.150Z,99049.85
2022-09-23T09:10:14.854Z,99049.63
2022-09-23T09:13:03.406Z,99046.60
2022-09-23T09:15:31.056Z,99049.48
2022-09-23T09:18:04.191Z,99051.31
2022-09-23T09:20:38.250Z,99053.72
2022-09-23T09:23:22.802Z,99053.10
2022-09-23T09:25:56.532Z,99055.20
2022-09-23T09:28:26.855Z,99054.79
2022-09-23T09:31:01.723Z,99056.91
2022-09-23T09:33:40.654Z,99059.86
2022-09-23T09:36:22.150Z,99059.14
2022-09-23T09:38:51.358Z,99058.73
2022-09-23T09:41:21.568Z,99056.11
2022-09-23T09:43:50.767Z,99055.06
2022-09-23T09:46:51.350Z,99060.00
2022-09-23T09:49:30.738Z,99052.58
2022-09-23T09:52:22.848Z,99052.77
2022-09-23T09:54:51.280Z,99051.38
2022-09-23T09:57:33.544Z,99047.30
2022-09-23T10:00:35.737Z,99045.83
2022-09-23T10:03:15.072Z,99046.23
2022-09-23T10:05:45.248Z,99048.70
2022-09-23T10:08:29.478Z,99048.95
2022-09-23T10:10:59.812Z,99047.36
2022-09-23T10:13:30.258Z,99046.77
2022-09-23T10:16:04.043Z,99046.33
2022-09-23T10:18:48.694Z,99042.90
2022-09-23T10:21:25.437Z,99038.13
2022-09-23T10:24:01.695Z,99040.30
2022-09-23T10:26:32.578Z,99041.27
2022-09-23T10:29:19.616Z,99041.44
2022-09-23T10:31:46.855Z,99040.30
2022-09-23T10:34:44.082Z,99038.94
2022-09-23T10:37:18.824Z,99040.75
2022-09-23T10:40:04.688Z,99041.21
2022-09-23T10:43:19.601Z,99037.19
2022-09-23T10:46:25.396Z,99034.02
2022-09-23T10:49:14.083Z,99030.04
2022-09-23T10:52:03.025Z,99028.40
2022-09-23T10:54:42.183Z,99033.02
2022-09-23T10:57:40.778Z,99024.41
2022-09-23T11:00:14.542Z,99024.20
2022-09-23T11:03:16.167Z,99025.60
2022-09-23T11:06:19.006Z,99025.30
2022-09-23T11:09:07.615Z,99030.44
2022-09-23T11:12:10.775Z,99031.30
2022-09-23T11:15:07.381Z,99031.11
2022-09-23T11:18:03.269Z,99031.54
2022-09-23T11:20:54.645Z,99027.91
2022-09-23T11:23:49.618Z,99031.59
2022-09-23T11:26:53.291Z,99027.95
2022-09-23T11:29:47.715Z,99026.69
2022-09-23T11:32:44.767Z,99027.11
2022-09-23T11:35:16.425Z,99023.08
2022-09-23T11:37:51.457Z,99020.62
2022-09-23T11:40:24.674Z,99022.29
2022-09-23T11:42:58.465Z,99022.63
2022-09-23T11:45:31.150Z,99019.38
2022-09-23T11:48:09.564Z,99015.41
2022-09-23T11:51:10.495Z,99013.73
2022-09-23T11:53:52.051Z,99013.46
2022-09-23T11:56:33.784Z,99014.04
2022-09-23T11:59:24.702Z,99009.17
2022-09-23T12:02:19.743Z,99010.36
2022-09-23T12:05:06.861Z,99008.05
2022-09-23T12:07:45.354Z,99008.29
2022-09-23T12:10:13.159Z,99007.13
2022-09-23T12:13:05.061Z,99011.00
2022-09-23T12:15:41.385Z,99013.52
2022-09-23T12:18:27.200Z,99011.41
2022-09-23T12:20:54.221Z,99005.48
2022-09-23T12:23:28.536Z,99006.83
2022-09-23T12:26:01.881Z,99011.99
2022-09-23T12:28:37.891Z,99015.19
2022-09-23T12:31:10.271Z,99020.40
2022-09-23T12:33:38.833Z,99015.98
2022-09-23T12:36:08.836Z,99016.44
2022-09-23T12:38:47.560Z,99012.71
2022-09-23T12:41:29.735Z,99009.77
2022-09-23T12:44:15.646Z,99016.09
2022-09-23T12:46:44.958Z,99015.43
2022-09-23T12:49:44.636Z,99015.07
2022-09-23T12:52:17.724Z,99012.90
2022-09-23T12:54:56.171Z,99012.41
2022-09-23T12:57:35.487Z,99011.38
2022-09-23T13:00:13.623Z,99009.89
2022-09-23T13:02:41.716Z,99007.29
2022-09-23T13:05:27.464Z,99003.54
2022-09-23T13:08:24.000Z,99007.42
2022-09-23T13:10:50.947Z,99002.39
2022-09-23T13:13:41.030Z,98999.58
2022-09-23T13:16:25.692Z,98997.00
2022-09-23T13:18:55.917Z,98995.93
2022-09-23T13:22:00.292Z,98995.05
2022-09-23T13:24:31.316Z,98992.02
2022-09-23T13:27:50.250Z,98989.63
2022-09-23T13:30:25.799Z,98988.48
2022-09-23T13:33:28.773Z,98986.38
2022-09-23T13:36:02.377Z,98987.82
2022-09-23T13:38:32.405Z,98987.48
2022-09-23T13:41:14.921Z,98989.26
2022-09-23T13:43:58.665Z,98989.16
2022-09-23T13:46:30.358Z,98986.83
2022-09-23T13:48:57.397Z,98986.73
2022-09-23T13:51:31.863Z,98985.30
2022-09-23T13:54:01.077Z,98986.77
2022-09-23T13:56:33.041Z,98985.43
2022-09-23T13:59:27.285Z,98986.85
2022-09-23T14:02:17.016Z,98988.85
2022-09-23T14:04:44.740Z,98990.48
2022-09-23T14:07:18.996Z,98985.92
2022-09-23T14:09:52.388Z,98987.41
2022-09-23T14:12:22.407Z,98992.11
2022-09-23T14:14:53.178Z,98993.52
2022-09-23T14:17:25.468Z,98995.09
2022-09-23T14:19:52.557Z,98998.28
2022-09-23T14:22:27.930Z,98993.79
2022-09-23T14:24:56.790Z,98998.14
2022-09-23T14:27:27.657Z,98999.80
2022-09-23T14:29:55.723Z,98998.45
2022-09-23T14:32:27.616Z,98998.79
2022-09-23T14:34:57.564Z,98997.14
2022-09-23T14:37:55.517Z,98998.06
2022-09-23T14:40:35.197Z,98999.80
2022-09-23T14:43:23.360Z,98998.94
2022-09-23T14:46:01.376Z,98996.02
2022-09-23T14:48:35.275Z,98998.17
2022-09-23T14:51:11.976Z,98994.25
2022-09-23T14:53:46.425Z,98992.69
2022-09-23T14:56:17.356Z,98995.00
2022-09-23T14:58:51.992Z,98992.61
2022-09-23T15:01:32.454Z,98994.34
2022-09-23T15:04:08.358Z,98992.53
2022-09-23T15:06:38.496Z,98990.45
2022-09-23T15:09:09.894Z,98988.47
2022-09-23T15:11:37.077Z,98989.29
2022-09-23T15:14:33.179Z,98987.73
2022-09-23T15:16:53.736Z,98992.73
2022-09-23T15:19:23.099Z,98991.96
2022-09-23T15:21:53.694Z,98995.70
2022-09-23T15:24:43.414Z,98994.57
2022-09-23T15:27:34.165Z,98994.96
2022-09-23T15:30:17.930Z,98991.29
2022-09-23T15:32:46.353Z,98990.07
2022-09-23T15:35:19.246Z,98990.90
2022-09-23T15:37:49.348Z,98993.55
2022-09-23T15:40:25.954Z,98994.08
2022-09-23T15:42:57.003Z,98992.34
2022-09-23T15:45:40.328Z,98997.91
2022-09-23T15:48:12.863Z,98995.48
2022-09-23T15:50:45.624Z,98988.53
2022-09-23T15:53:18.912Z,98989.80
2022-09-23T15:55:46.049Z,98986.98
2022-09-23T15:58:13.106Z,98992.56
2022-09-23T16:00:40.485Z,99000.71
2022-09-23T16:03:07.662Z,99000.34
2022-09-23T16:05:37.942Z,99000.80
2022-09-23T16:08:09.027Z,99001.93
2022-09-23T16:10:37.721Z,99001.72
2022-09-23T16:13:09.199Z,99002.02
2022-09-23T16:15:36.447Z,99003.77
2022-09-23T16:18:03.647Z,99006.09
2022-09-23T16:20:30.899Z,99009.30
2022-09-23T16:23:03.567Z,99010.20
2022-09-23T16:25:36.788Z,99011.63
2022-09-23T16:28:04.992Z,99010.23
2022-09-23T16:30:34.109Z,99013.86
2022-09-23T16:33:02.201Z,99011.39
2022-09-23T16:35:33.687Z,99016.29
2022-09-23T16:38:00.782Z,99011.30
2022-09-23T16:40:27.940Z,99009.77
2022-09-23T16:42:56.035Z,99011.14
2022-09-23T16:45:23.472Z,99007.85
2022-09-23T16:47:52.184Z,99012.98
2022-09-23T16:50:22.891Z,99009.77
2022-09-23T16:52:56.375Z,99008.08
2022-09-23T16:55:25.924Z,99011.67
2022-09-23T16:57:54.355Z,99012.84
2022-09-23T17:00:41.166Z,99014.27
2022-09-23T17:03:30.942Z,99017.91
2022-09-23T17:05:58.287Z,99016.06
2022-09-23T17:08:25.306Z,99021.27
2022-09-23T17:10:58.475Z,99023.73
2022-09-23T17:13:27.227Z,99022.90
2022-09-23T17:15:54.870Z,99023.02
2022-09-23T17:18:22.328Z,99021.20
2022-09-23T17:21:01.277Z,99022.94
2022-09-23T17:23:29.807Z,99026.49
2022-09-23T17:25:57.045Z,99023.20
2022-09-23T17:28:25.029Z,99023.02
2022-09-23T17:30:59.304Z,99018.82
2022-09-23T17:33:31.637Z,99018.23
2022-09-23T17:36:02.622Z,99018.16
2022-09-23T17:38:29.841Z,99018.15
2022-09-23T17:40:59.223Z,99018.16
2022-09-23T17:43:26.242Z,99017.70
2022-09-23T17:46:01.267Z,99011.39
2022-09-23T17:48:29.123Z,99013.48
2022-09-23T17:51:04.600Z,99013.80
2022-09-23T17:53:37.165Z,99015.70
2022-09-23T17:56:19.440Z,99011.79
2022-09-23T17:58:48.464Z,99010.77
2022-09-23T18:01:18.696Z,99011.94
2022-09-23T18:03:46.533Z,99008.86
2022-09-23T18:06:15.001Z,99010.06
2022-09-23T18:08:44.372Z,99009.57
2022-09-23T18:11:20.706Z,99013.75
2022-09-23T18:13:56.517Z,99005.29
2022-09-23T18:16:26.147Z,99004.10
2022-09-23T18:18:59.501Z,99002.61
2022-09-23T18:21:30.504Z,99000.46
2022-09-23T18:24:15.653Z,98996.83
2022-09-23T18:26:45.789Z,99000.98
2022-09-23T18:29:14.328Z,99000.54
2022-09-23T18:31:44.271Z,99002.04
2022-09-23T18:34:14.076Z,99004.20
2022-09-23T18:36:41.388Z,99002.78
2022-09-23T18:39:08.714Z,99004.01
2022-09-23T19:37:22.632Z,98982.24
2022-09-23T19:39:49.596Z,98976.70
2022-09-23T19:42:16.642Z,98976.32
2022-09-23T19:44:43.533Z,98974.92
2022-09-23T19:47:14.886Z,98973.20
2022-09-23T19:49:41.755Z,98968.23
2022-09-23T19:52:08.619Z,98973.46
2022-09-23T19:54:36.674Z,98970.02
2022-09-23T19:57:03.612Z,98972.86
2022-09-23T19:59:30.952Z,98974.15
2022-09-23T20:01:57.894Z,98972.83
2022-09-23T20:04:25.696Z,98975.73
2022-09-23T20:06:52.625Z,98971.55
2022-09-23T20:09:20.106Z,98970.64
2022-09-23T20:11:46.892Z,98971.73
2022-09-23T20:14:14.621Z,98970.92
2022-09-23T20:16:41.612Z,98969.61
2022-09-23T20:19:09.247Z,98972.09
2022-09-23T20:21:36.413Z,98972.08
2022-09-23T20:24:05.884Z,98973.80
2022-09-23T20:26:51.534Z,98970.65
2022-09-23T20:29:18.633Z,98967.38
2022-09-23T20:31:45.709Z,98970.27
2022-09-23T20:34:16.189Z,98964.17
2022-09-23T20:36:44.330Z,98966.55
2022-09-23T20:39:12.602Z,98963.54
2022-09-23T20:41:41.289Z,98962.30
2022-09-23T20:44:13.473Z,98961.56
2022-09-23T20:46:46.974Z,98963.09
2022-09-23T20:49:16.869Z,98964.48
2022-09-23T20:51:43.802Z,98961.97
2022-09-23T20:54:11.667Z,98961.80
2022-09-23T20:56:38.706Z,98963.63
2022-09-23T20:59:05.900Z,98963.36
2022-09-23T21:01:34.636Z,98957.45
2022-09-23T21:04:04.455Z,98957.66
2022-09-23T21:06:33.679Z,98952.38
2022-09-23T21:09:01.243Z,98951.67
2022-09-23T21:11:28.709Z,98952.63
2022-09-23T21:13:56.047Z,98951.80
2022-09-23T21:16:23.936Z,98956.14
2022-09-23T21:18:52.025Z,98945.89
2022-09-23T21:21:21.480Z,98943.85
2022-09-23T21:23:50.005Z,98943.91
2022-09-23T21:26:22.799Z,98944.48
2022-09-23T21:28:59.358Z,98947.04
2022-09-23T21:31:32.992Z,98942.94
2022-09-23T21:33:59.784Z,98944.90
2022-09-23T21:36:28.579Z,98942.55
2022-09-23T21:38:57.405Z,98939.43
2022-09-23T21:41:25.009Z,98938.44
2022-09-23T21:43:51.973Z,98937.29
2022-09-23T21:46:20.266Z,98940.38
2022-09-23T21:48:52.293Z,98936.34
2022-09-23T21:51:20.882Z,98940.14
2022-09-23T21:53:48.605Z,98941.41
2022-09-23T21:56:21.778Z,98938.23
2022-09-23T21:58:49.698Z,98937.43
2022-09-23T22:01:22.566Z,98936.45
2022-09-23T22:04:07.348Z,98935.13
2022-09-23T22:06:37.582Z,98933.20
2022-09-23T22:09:08.353Z,98935.21
2022-09-23T22:11:56.307Z,98941.35
2022-09-23T22:14:25.559Z,98941.80
2022-09-23T22:16:56.680Z,98942.92
2022-09-23T22:19:32.235Z,98939.56
2022-09-23T22:21:59.593Z,98939.18
2022-09-23T22:24:27.424Z,98936.66
2022-09-23T22:26:54.310Z,98934.70
2022-09-23T22:29:39.805Z,98936.86
2022-09-23T22:32:29.248Z,98938.98
2022-09-23T22:34:57.031Z,98941.55
2022-09-23T22:37:29.789Z,98944.25
2022-09-23T22:39:56.794Z,98938.38
2022-09-23T22:42:23.847Z,98935.88
2022-09-23T22:44:52.267Z,98936.27
2022-09-23T22:47:19.468Z,98933.21
2022-09-23T22:49:47.142Z,98930.83
2022-09-23T22:52:20.318Z,98925.98
2022-09-23T22:54:47.241Z,98927.83
2022-09-23T22:57:14.695Z,98931.80
2022-09-23T22:59:47.248Z,98925.05
2022-09-23T23:02:17.277Z,98922.05
2022-09-23T23:04:46.585Z,98923.19
2022-09-23T23:07:15.632Z,98923.71
2022-09-23T23:09:42.634Z,98921.65
2022-09-23T23:12:09.431Z,98922.23
2022-09-23T23:14:37.523Z,98921.02
2022-09-23T23:17:07.012Z,98916.59
2022-09-23T23:19:35.713Z,98916.80
2022-09-23T23:22:03.990Z,98915.41
2022-09-23T23:24:31.822Z,98910.58
2022-09-23T23:26:58.796Z,98910.84
2022-09-23T23:29:25.729Z,98908.91
2022-09-23T23:31:52.650Z,98909.16
2022-09-23T23:34:21.005Z,98904.08
2022-09-23T23:36:53.844Z,98902.38
2022-09-23T23:39:23.056Z,98903.73
2022-09-23T23:41:53.702Z,98898.98
2022-09-23T23:44:24.015Z,98902.23
2022-09-23T23:46:51.860Z,98896.79
2022-09-23T23:49:19.316Z,98894.84
2022-09-23T23:51:47.284Z,98893.55
2022-09-23T23:54:14.708Z,98892.92
2022-09-23T23:56:41.499Z,98893.05
2022-09-23T23:59:08.322Z,98886.56
